Terminal Aerodrome Forecast
Issued by NWS North Platte, NE

Home | Current Version | Previous Version | Graphics & Text | Print | Product List | Glossary Off
Versions: 1 2 3 4 5 6 7 8 9 10 11 12 13 14 15 16 17 18

000
FTUS43 KLBF 260500
TAFVTN
TAF
KVTN 260520Z 2606/2706 11006KT P6SM BKN025
     FM260800 12007KT 5SM BR OVC015
     FM261500 12012KT P6SM OVC015
     FM261800 13011KT P6SM OVC050=

USA.gov is the U.S. government's official web portal to all federal, state and local government web resources and services.